Weather History for Belmar-Farmingdale, NJ

Change the Weather History Date:

Monday, September 10, 2012

  Actual Average Record
Temperature  
Mean Temperature 64 °F -  
Max Temperature 73 °F 74 °F 89 °F (2013)
Min Temperature 55 °F 60 °F 51 °F (1998)
Degree Days  
Heating Degree Days 1    
Growing Degree Days 14 (Base 50)    
Moisture  
Dew Point 49 °F    
Average Humidity 62    
Maximum Humidity 94    
Minimum Humidity 36    
Precipitation  
Precipitation 0.00 in - - ()
Sea Level Pressure  
Sea Level Pressure 30.00 in    
Wind  
Wind Speed 9 mph (NW)    
Max Wind Speed 20 mph    
Max Gust Speed 25 mph    
Visibility 10 miles    
Events      
Averages and records for this station are not official NWS values.
T = Trace of Precipitation, MM = Missing Value Source: NWS Daily Summary

Daily Weather History Graph

Daily Weather History Graph

Search for Another Location

Airport:

Trip Planner

Search our weather history database for the weather conditions in past years. The results will help you decide how hot, cold, wet, or windy it might be!

Date:

Astronomy

Sep. 10, 2012 Rise Set
Actual Time 6:33 AM EDT 7:12 PM EDT
Civil Twilight 6:05 AM EDT 7:40 PM EDT
Nautical Twilight 5:33 AM EDT 8:12 PM EDT
Astronomical Twilight 4:59 AM EDT 8:45 PM EDT
Moon 12:51 AM EDT (9/10) 3:40 PM EDT (9/10)
Length of Visible Light 13h 34m
Length of Day
12h 39m
Waning Crescent, 30% of the Moon is Illuminated
Sep 10
Waning Crescent
Sep 15
New
Sep 22
First Quarter
Sep 29
Full
Oct 8
Last Quarter

Hourly Weather History & Observations

Time (EDT) Temp. Dew Point Humidity Pressure Visibility Wind Dir Wind Speed Gust Speed Precip Events Conditions
12:15 AM 60.8 °F 55.4 °F 82% 29.89 in 10.0 mi NW 8.1 mph - N/A   Clear
12:35 AM 60.8 °F 55.4 °F 82% 29.90 in 10.0 mi NW 8.1 mph - N/A   Clear
12:55 AM 60.8 °F 55.4 °F 82% 29.90 in 10.0 mi NW 6.9 mph - N/A   Clear
1:15 AM 60.8 °F 55.4 °F 82% 29.90 in 10.0 mi NW 8.1 mph - N/A   Clear
1:35 AM 60.8 °F 55.4 °F 82% 29.90 in 10.0 mi NW 8.1 mph - N/A   Clear
1:55 AM 60.8 °F 55.4 °F 82% 29.90 in 10.0 mi NNW 8.1 mph - N/A   Clear
2:15 AM 60.8 °F 55.4 °F 82% 29.90 in 10.0 mi NW 8.1 mph - N/A   Clear
2:35 AM 59.0 °F 55.4 °F 88% 29.90 in 10.0 mi NW 6.9 mph - N/A   Clear
2:55 AM 59.0 °F 55.4 °F 88% 29.90 in 10.0 mi NW 5.8 mph - N/A   Clear
3:15 AM 59.0 °F 55.4 °F 88% 29.90 in 10.0 mi NW 6.9 mph - N/A   Clear
3:35 AM 57.2 °F 55.4 °F 94% 29.90 in 10.0 mi NW 8.1 mph - N/A   Clear
3:55 AM 57.2 °F 53.6 °F 88% 29.90 in 10.0 mi NW 6.9 mph - N/A   Clear
4:15 AM 57.2 °F 53.6 °F 88% 29.90 in 10.0 mi NW 6.9 mph - N/A   Clear
4:35 AM 57.2 °F 53.6 °F 88% 29.91 in 10.0 mi NW 6.9 mph - N/A   Clear
4:55 AM 57.2 °F 53.6 °F 88% 29.91 in 10.0 mi NW 8.1 mph - N/A   Clear
5:15 AM 57.2 °F 51.8 °F 82% 29.92 in 10.0 mi NW 8.1 mph - N/A   Clear
5:35 AM 57.2 °F 51.8 °F 82% 29.92 in 10.0 mi WNW 8.1 mph - N/A   Clear
5:55 AM 57.2 °F 51.8 °F 82% 29.93 in 10.0 mi NW 8.1 mph - N/A   Clear
6:15 AM 55.4 °F 51.8 °F 88% 29.94 in 10.0 mi NW 8.1 mph - N/A   Clear
6:35 AM 55.4 °F 51.8 °F 88% 29.95 in 10.0 mi NNW 5.8 mph - N/A   Clear
6:55 AM 55.4 °F 51.8 °F 88% 29.97 in 10.0 mi NW 6.9 mph - N/A   Clear
7:15 AM 55.4 °F 51.8 °F 88% 29.98 in 10.0 mi NW 8.1 mph - N/A   Clear
7:35 AM 57.2 °F 51.8 °F 82% 29.98 in 10.0 mi NNW 8.1 mph - N/A   Clear
7:55 AM 59.0 °F 51.8 °F 77% 29.99 in 10.0 mi NNW 8.1 mph - N/A   Clear
8:15 AM 60.8 °F 51.8 °F 72% 30.00 in 10.0 mi NNW 9.2 mph - N/A   Clear
8:35 AM 62.6 °F 51.8 °F 68% 30.00 in 10.0 mi NNW 8.1 mph - N/A   Clear
8:55 AM 62.6 °F 51.8 °F 68% 30.00 in 10.0 mi NNW 9.2 mph - N/A   Clear
9:15 AM 64.4 °F 51.8 °F 64% 30.00 in 10.0 mi NNW 10.4 mph - N/A   Clear
9:35 AM 66.2 °F 51.8 °F 60% 30.01 in 10.0 mi NNW 15.0 mph - N/A   Clear
9:55 AM 66.2 °F 51.8 °F 60% 30.01 in 10.0 mi North 10.4 mph - N/A   Clear
10:15 AM 68.0 °F 51.8 °F 56% 30.02 in 10.0 mi North 12.7 mph 17.3 mph N/A   Clear
10:35 AM 68.0 °F 50.0 °F 52% 30.02 in 10.0 mi NNW 11.5 mph - N/A   Clear
10:55 AM 69.8 °F 48.2 °F 46% 30.02 in 10.0 mi NNW 12.7 mph - N/A   Clear
11:15 AM 69.8 °F 48.2 °F 46% 30.01 in 10.0 mi North 6.9 mph - N/A   Clear
11:35 AM 69.8 °F 46.4 °F 43% 30.01 in 10.0 mi NNW 13.8 mph 19.6 mph N/A   Clear
11:55 AM 69.8 °F 46.4 °F 43% 30.01 in 10.0 mi NW 15.0 mph 20.7 mph N/A   Partly Cloudy
12:15 PM 71.6 °F 48.2 °F 43% 30.01 in 10.0 mi NNW 12.7 mph 17.3 mph N/A   Clear
12:35 PM 71.6 °F 46.4 °F 41% 30.01 in 10.0 mi North 17.3 mph 24.2 mph N/A   Clear
12:55 PM 71.6 °F 46.4 °F 41% 30.00 in 10.0 mi North 13.8 mph 21.9 mph N/A   Scattered Clouds
1:15 PM 71.6 °F 46.4 °F 41% 30.00 in 10.0 mi North 12.7 mph 17.3 mph N/A   Scattered Clouds
1:35 PM 71.6 °F 46.4 °F 41% 30.00 in 10.0 mi NW 16.1 mph 20.7 mph N/A   Scattered Clouds
1:55 PM 71.6 °F 46.4 °F 41% 30.00 in 10.0 mi WNW 13.8 mph - N/A   Mostly Cloudy
2:15 PM 73.4 °F 44.6 °F 36% 29.99 in 10.0 mi NW 13.8 mph - N/A   Scattered Clouds
2:35 PM 73.4 °F 46.4 °F 38% 29.99 in 10.0 mi NW 17.3 mph 20.7 mph N/A   Scattered Clouds
2:55 PM 73.4 °F 46.4 °F 38% 29.99 in 10.0 mi NNW 17.3 mph 24.2 mph N/A   Mostly Cloudy
3:15 PM 73.4 °F 46.4 °F 38% 29.99 in 10.0 mi NW 15.0 mph 21.9 mph N/A   Scattered Clouds
3:35 PM 73.4 °F 46.4 °F 38% 29.98 in 10.0 mi NNW 16.1 mph 21.9 mph N/A   Mostly Cloudy
3:55 PM 73.4 °F 46.4 °F 38% 29.98 in 10.0 mi NW 16.1 mph - N/A   Partly Cloudy
4:15 PM 73.4 °F 46.4 °F 38% 29.98 in 10.0 mi NW 19.6 mph 25.3 mph N/A   Scattered Clouds
4:35 PM 71.6 °F 46.4 °F 41% 29.99 in 10.0 mi NNW 13.8 mph 23.0 mph N/A   Mostly Cloudy
4:55 PM 71.6 °F 46.4 °F 41% 30.00 in 10.0 mi NW 16.1 mph 19.6 mph N/A   Scattered Clouds
5:15 PM 71.6 °F 46.4 °F 41% 30.00 in 10.0 mi NNW 15.0 mph 20.7 mph N/A   Clear
5:35 PM 71.6 °F 44.6 °F 38% 30.01 in 10.0 mi NW 16.1 mph - N/A   Mostly Cloudy
5:55 PM 69.8 °F 44.6 °F 40% 30.02 in 10.0 mi NW 11.5 mph - N/A   Scattered Clouds
6:15 PM 68.0 °F 46.4 °F 46% 30.03 in 10.0 mi NW 11.5 mph - N/A   Clear
6:35 PM 68.0 °F 44.6 °F 43% 30.04 in 10.0 mi NW 11.5 mph - N/A   Clear
6:55 PM 66.2 °F 44.6 °F 46% 30.04 in 10.0 mi NNW 12.7 mph 20.7 mph N/A   Clear
7:15 PM 66.2 °F 44.6 °F 46% 30.05 in 10.0 mi NW 12.7 mph - N/A   Clear
7:35 PM 64.4 °F 44.6 °F 49% 30.06 in 10.0 mi NW 6.9 mph - N/A   Clear
7:55 PM 62.6 °F 44.6 °F 52% 30.06 in 10.0 mi NW 6.9 mph - N/A   Clear
8:15 PM 62.6 °F 44.6 °F 52% 30.08 in 10.0 mi NW 5.8 mph - N/A   Clear
8:35 PM 62.6 °F 44.6 °F 52% 30.08 in 10.0 mi WNW 5.8 mph - N/A   Clear
8:55 PM 60.8 °F 44.6 °F 55% 30.09 in 10.0 mi NW 5.8 mph - N/A   Clear
9:15 PM 60.8 °F 46.4 °F 59% 30.10 in 10.0 mi WNW 4.6 mph - N/A   Clear
9:35 PM 59.0 °F 44.6 °F 59% 30.11 in 10.0 mi WNW 3.5 mph - N/A   Clear
9:55 PM 57.2 °F 46.4 °F 67% 30.11 in 10.0 mi NW 4.6 mph - N/A   Clear
10:15 PM 57.2 °F 46.4 °F 67% 30.12 in 10.0 mi NW 5.8 mph - N/A   Clear
10:35 PM 57.2 °F 46.4 °F 67% 30.12 in 10.0 mi NW 8.1 mph - N/A   Clear
10:55 PM 57.2 °F 46.4 °F 67% 30.13 in 10.0 mi NNW 8.1 mph - N/A   Clear
11:15 PM 57.2 °F 44.6 °F 63% 30.14 in 10.0 mi NNW 6.9 mph - N/A   Clear
11:35 PM 57.2 °F 44.6 °F 63% 30.14 in 10.0 mi NW 5.8 mph - N/A   Clear
11:55 PM 55.4 °F 44.6 °F 67% 30.14 in 10.0 mi NW 5.8 mph - N/A   Clear